createdAt,value
2023-08-05T00:03:37.427Z,100512.22
2023-08-05T00:08:30.673Z,100508.78
2023-08-05T00:13:24.041Z,100511.66
2023-08-05T00:18:18.568Z,100462.72
2023-08-05T00:23:11.793Z,100524.91
2023-08-05T00:28:05.277Z,100500.31
2023-08-05T00:32:58.459Z,100522.44
2023-08-05T00:37:53.078Z,100494.38
2023-08-05T00:42:46.266Z,100511.69
2023-08-05T00:47:39.508Z,100515.28
2023-08-05T00:52:32.845Z,100507.03
2023-08-05T00:57:27.742Z,100512.94
2023-08-05T01:02:20.861Z,100486.53
2023-08-05T01:07:15.840Z,100494.28
2023-08-05T01:12:10.102Z,100504.91
2023-08-05T01:17:04.996Z,100487.44
2023-08-05T01:22:06.165Z,100495.91
2023-08-05T01:27:00.917Z,100483.25
2023-08-05T01:31:55.142Z,100477.75
2023-08-05T01:36:48.504Z,100468.63
2023-08-05T01:41:41.844Z,100476.03
2023-08-05T01:46:36.362Z,100478.50
2023-08-05T01:51:29.850Z,100459.03
2023-08-05T01:56:23.064Z,100463.78
2023-08-05T02:01:16.322Z,100479.97
2023-08-05T02:06:10.932Z,100482.63
2023-08-05T02:11:05.169Z,100473.56
2023-08-05T02:15:58.331Z,100464.13
2023-08-05T02:20:51.488Z,100467.38
2023-08-05T02:25:46.026Z,100470.22
2023-08-05T02:30:39.797Z,100471.22
2023-08-05T02:35:33.131Z,100474.88
2023-08-05T02:40:27.657Z,100438.66
2023-08-05T02:45:22.223Z,100473.09
2023-08-05T02:50:15.606Z,100481.69
2023-08-05T02:55:09.418Z,100466.88
2023-08-05T03:00:04.505Z,100460.50
2023-08-05T03:04:59.103Z,100439.19
2023-08-05T03:09:52.427Z,100483.31
2023-08-05T03:14:45.592Z,100480.59
2023-08-05T03:19:38.915Z,100482.59
2023-08-05T03:24:33.789Z,100478.03
2023-08-05T03:29:27.174Z,100460.13
2023-08-05T03:34:20.691Z,100461.75
2023-08-05T03:39:14.468Z,100464.41
2023-08-05T03:44:09.379Z,100475.25
2023-08-05T03:49:03.686Z,100461.53
2023-08-05T03:53:57.427Z,100455.59
2023-08-05T03:58:52.696Z,100460.31
2023-08-05T04:03:47.693Z,100415.13
2023-08-05T04:08:41.831Z,100453.53
2023-08-05T04:13:36.037Z,100465.13
2023-08-05T04:18:29.417Z,100474.00
2023-08-05T04:23:25.339Z,100484.31
2023-08-05T04:28:19.446Z,100489.28
2023-08-05T04:33:13.076Z,100481.78
2023-08-05T04:38:06.286Z,100477.91
2023-08-05T04:43:00.776Z,100506.22
2023-08-05T04:47:53.955Z,100481.44
2023-08-05T04:52:47.829Z,100481.31
2023-08-05T04:57:40.937Z,100503.59
2023-08-05T05:02:35.508Z,100495.00
2023-08-05T05:07:28.606Z,100485.81
2023-08-05T05:12:21.753Z,100398.41
2023-08-05T05:17:17.132Z,100480.94
2023-08-05T05:22:11.979Z,100493.91
2023-08-05T05:27:05.622Z,100479.53
2023-08-05T05:31:58.747Z,100506.81
2023-08-05T05:36:52.192Z,100485.69
2023-08-05T05:41:47.016Z,100486.72
2023-08-05T05:46:40.214Z,100485.06
2023-08-05T05:51:33.417Z,100481.69
2023-08-05T05:56:26.540Z,100480.34
2023-08-05T06:01:21.062Z,100476.34
2023-08-05T06:06:14.384Z,100470.59
2023-08-05T06:11:08.559Z,100478.41
2023-08-05T06:16:02.075Z,100459.00
2023-08-05T06:20:56.627Z,100464.84
2023-08-05T06:25:49.894Z,100474.34
2023-08-05T06:30:45.081Z,100457.16
2023-08-05T06:35:38.388Z,100452.59
2023-08-05T06:40:33.136Z,100462.25
2023-08-05T06:45:26.397Z,100455.97
2023-08-05T06:50:19.734Z,100458.53
2023-08-05T06:55:13.353Z,100438.19
2023-08-05T07:00:09.495Z,100454.84
2023-08-05T07:05:02.696Z,100458.03
2023-08-05T07:10:02.039Z,100423.19
2023-08-05T07:14:55.178Z,100433.03
2023-08-05T07:19:50.829Z,100437.72
2023-08-05T07:24:44.027Z,100434.34
2023-08-05T07:29:39.327Z,100391.25
2023-08-05T07:34:33.901Z,100398.47
2023-08-05T07:39:34.588Z,100412.09
2023-08-05T07:44:27.763Z,100413.28
2023-08-05T07:49:21.108Z,100411.44
2023-08-05T07:54:15.161Z,100403.56
2023-08-05T07:59:10.071Z,100404.22
2023-08-05T08:04:04.500Z,100409.81
2023-08-05T08:08:57.762Z,100371.88
2023-08-05T08:13:50.883Z,100393.44
2023-08-05T08:18:45.441Z,100393.09
2023-08-05T08:23:38.626Z,100386.19
2023-08-05T08:28:31.936Z,100359.44
2023-08-05T08:33:26.301Z,100360.47
2023-08-05T08:38:21.542Z,100371.34
2023-08-05T08:43:20.071Z,100354.06
2023-08-05T08:48:16.979Z,100364.41
2023-08-05T08:53:10.913Z,100351.94
2023-08-05T08:58:05.685Z,100330.84
2023-08-05T09:02:59.991Z,100338.78
2023-08-05T09:07:53.644Z,100333.78
2023-08-05T09:12:47.127Z,100325.97
2023-08-05T09:17:41.795Z,100327.88
2023-08-05T09:22:34.966Z,100328.88
2023-08-05T09:27:28.170Z,100308.75
2023-08-05T09:32:32.630Z,100311.56
2023-08-05T09:37:32.029Z,100300.38
2023-08-05T09:42:26.100Z,100299.44
2023-08-05T09:47:24.266Z,100302.56
2023-08-05T09:52:19.199Z,100280.91
2023-08-05T09:57:15.062Z,100190.88
2023-08-05T10:02:12.861Z,100267.47
2023-08-05T10:07:06.202Z,100261.63
2023-08-05T10:11:59.797Z,100247.03
2023-08-05T10:16:54.572Z,100261.41
2023-08-05T10:21:47.836Z,100270.47
2023-08-05T10:26:45.067Z,100264.94
2023-08-05T10:31:38.764Z,100249.88
2023-08-05T10:36:45.026Z,100266.22
2023-08-05T10:41:38.255Z,100245.31
2023-08-05T10:46:33.417Z,100221.81
2023-08-05T10:51:27.762Z,100196.09
2023-08-05T10:56:31.344Z,100213.66
2023-08-05T11:01:24.608Z,100212.56
2023-08-05T11:06:26.568Z,100191.22
2023-08-05T11:11:19.875Z,100191.78
2023-08-05T11:16:15.420Z,100193.09
2023-08-05T11:21:10.027Z,100177.09
2023-08-05T11:26:03.652Z,100183.88
2023-08-05T11:30:57.259Z,100173.22
2023-08-05T11:35:55.142Z,100170.88
2023-08-05T11:40:50.638Z,100191.78
2023-08-05T11:45:44.509Z,100164.22
2023-08-05T11:50:38.561Z,100166.16
2023-08-05T11:55:37.160Z,100158.19
2023-08-05T12:00:30.816Z,100155.06
2023-08-05T12:05:24.960Z,100135.41
2023-08-05T12:10:19.846Z,100124.31
2023-08-05T12:15:15.782Z,100116.88
2023-08-05T12:20:12.585Z,100112.84
2023-08-05T12:25:07.775Z,100126.34
2023-08-05T12:30:02.174Z,100106.69
2023-08-05T12:34:56.675Z,100110.13
2023-08-05T12:39:49.853Z,100109.66
2023-08-05T12:44:43.026Z,100084.47
2023-08-05T12:49:37.390Z,100003.75
2023-08-05T12:54:32.010Z,100080.78
2023-08-05T12:59:25.412Z,100083.19
2023-08-05T13:04:18.626Z,100086.16
2023-08-05T13:09:11.813Z,100070.53
2023-08-05T13:14:06.802Z,100019.25
2023-08-05T13:18:59.952Z,100054.78
2023-08-05T13:23:53.118Z,100060.75
2023-08-05T13:28:46.257Z,100060.06
2023-08-05T13:33:43.125Z,100055.25
2023-08-05T13:38:36.196Z,100056.84
2023-08-05T13:43:29.471Z,100052.59
2023-08-05T13:48:23.133Z,100044.59
2023-08-05T13:53:17.647Z,100005.41
2023-08-05T13:58:10.856Z,100042.44
2023-08-05T14:03:04.092Z,100037.13
2023-08-05T14:07:57.384Z,100027.25
2023-08-05T14:12:51.884Z,100040.72
2023-08-05T14:17:45.092Z,100004.59
2023-08-05T14:22:38.327Z,100030.19
2023-08-05T14:27:31.482Z,100020.72
2023-08-05T14:32:28.628Z,100028.78
2023-08-05T14:37:21.844Z,100018.88
2023-08-05T14:42:15.029Z,100024.50
2023-08-05T14:47:08.509Z,99993.97
2023-08-05T14:52:03.126Z,100004.94
2023-08-05T14:56:56.377Z,99997.44
2023-08-05T15:01:49.796Z,99993.59
2023-08-05T15:06:43.193Z,99983.31
2023-08-05T15:11:37.773Z,99979.38
2023-08-05T15:16:30.888Z,99967.69
2023-08-05T15:21:24.213Z,99955.16
2023-08-05T15:26:17.909Z,99969.53
2023-08-05T15:31:18.857Z,99959.28
2023-08-05T15:36:16.216Z,99970.69
2023-08-05T15:41:09.308Z,99978.75
2023-08-05T15:46:02.578Z,99967.38
2023-08-05T15:51:04.789Z,99969.78
2023-08-05T15:56:01.683Z,99971.56
2023-08-05T16:01:01.343Z,99966.34
2023-08-05T16:06:03.288Z,99977.06
2023-08-05T16:11:01.224Z,99962.69
2023-08-05T16:15:54.259Z,99974.22
2023-08-05T16:20:47.666Z,99961.31
2023-08-05T16:25:42.270Z,99949.00
2023-08-05T16:30:35.516Z,99950.97
2023-08-05T16:35:28.878Z,99923.66
2023-08-05T16:40:22.143Z,99952.31
2023-08-05T16:45:19.459Z,99955.56
2023-08-05T16:50:12.730Z,99960.22
2023-08-05T16:55:06.558Z,99958.72
2023-08-05T16:59:59.780Z,99952.56
2023-08-05T17:04:55.849Z,99950.44
2023-08-05T17:09:51.349Z,99926.22
2023-08-05T17:14:44.799Z,99926.28
2023-08-05T17:19:38.004Z,99926.59
2023-08-05T17:24:32.514Z,99930.41
2023-08-05T17:29:25.764Z,99914.28
2023-08-05T17:34:18.969Z,99910.47
2023-08-05T17:39:12.219Z,99911.03
2023-08-05T17:44:06.975Z,99902.16
2023-08-05T17:49:00.225Z,99901.06
2023-08-05T17:53:53.476Z,99905.06
2023-08-05T17:58:46.924Z,99902.09
2023-08-05T18:03:41.588Z,99899.34
2023-08-05T18:08:35.394Z,99885.25
2023-08-05T18:13:28.683Z,99888.97
2023-08-05T18:18:22.024Z,99913.69
2023-08-05T18:23:16.990Z,99906.06
2023-08-05T18:28:11.133Z,99900.88
2023-08-05T18:33:04.742Z,99897.53
2023-08-05T18:37:59.136Z,99909.03
2023-08-05T18:42:53.759Z,99911.53
2023-08-05T18:47:46.907Z,99935.41
2023-08-05T18:52:40.081Z,99943.38
2023-08-05T18:57:36.475Z,99940.00
2023-08-05T19:02:31.168Z,99949.84
2023-08-05T19:07:24.437Z,99947.06
2023-08-05T19:12:17.642Z,99940.25
2023-08-05T19:17:10.864Z,99925.56
2023-08-05T19:22:06.039Z,99928.94
2023-08-05T19:26:59.208Z,99926.19
2023-08-05T19:31:52.718Z,99919.56
2023-08-05T19:36:46.413Z,99923.53
2023-08-05T19:41:41.067Z,99918.81
2023-08-05T19:46:34.819Z,99904.66
2023-08-05T19:51:28.116Z,99914.25
2023-08-05T19:56:21.402Z,99916.03
2023-08-05T20:01:15.956Z,99891.34
2023-08-05T20:06:09.343Z,99893.22
2023-08-05T20:11:02.490Z,99899.00
2023-08-05T20:15:58.399Z,99895.09
2023-08-05T20:20:53.194Z,99866.69
2023-08-05T20:25:46.343Z,99775.53
2023-08-05T20:30:39.735Z,99741.63
2023-08-05T20:35:34.325Z,99852.09
2023-08-05T20:40:29.244Z,99879.69
2023-08-05T20:45:22.533Z,99860.09
2023-08-05T20:50:16.050Z,99863.28
2023-08-05T20:55:09.780Z,99889.47
2023-08-05T21:00:06.069Z,99895.78
2023-08-05T21:05:01.083Z,99905.81
2023-08-05T21:09:54.267Z,99907.56
2023-08-05T21:14:47.747Z,99900.75
2023-08-05T21:19:42.359Z,99901.09
2023-08-05T21:24:35.887Z,99887.03
2023-08-05T21:29:29.099Z,99853.69
2023-08-05T21:34:22.342Z,99904.75
2023-08-05T21:39:16.912Z,99902.56
2023-08-05T21:44:10.217Z,99901.66
2023-08-05T21:49:03.316Z,99887.81
2023-08-05T21:53:56.473Z,99860.34
2023-08-05T21:58:50.994Z,99730.19
2023-08-05T22:03:44.279Z,99845.72
2023-08-05T22:08:37.693Z,99792.13
2023-08-05T22:13:30.883Z,99834.66
2023-08-05T22:18:25.471Z,99823.06
2023-08-05T22:23:18.767Z,99831.69
2023-08-05T22:28:12.059Z,99825.41
2023-08-05T22:33:05.427Z,99794.31
2023-08-05T22:38:00.155Z,99777.16
2023-08-05T22:42:53.437Z,99759.84
2023-08-05T22:47:46.723Z,99784.44
2023-08-05T22:52:40.964Z,99795.94
2023-08-05T22:57:35.578Z,99792.31
2023-08-05T23:02:28.872Z,99786.59
2023-08-05T23:07:22.108Z,99804.34
2023-08-05T23:12:15.273Z,99795.34
2023-08-05T23:17:09.760Z,99775.72
2023-08-05T23:22:03.054Z,99783.94
2023-08-05T23:26:56.262Z,99771.25
2023-08-05T23:31:49.420Z,99783.81
2023-08-05T23:36:44.124Z,99792.84
2023-08-05T23:41:37.305Z,99771.34
2023-08-05T23:46:30.543Z,99778.09
2023-08-05T23:51:23.845Z,99766.34
2023-08-05T23:56:18.510Z,99765.88
